sensor_id;sensor_type;location;lat;lon;timestamp;pressure;altitude;pressure_sealevel;temperature;humidity
70133;BME280;57495;49.922;7.966;2024-03-06T00:01:12;99994.84;;;5.50;100.00
70133;BME280;57495;49.922;7.966;2024-03-06T00:03:13;100008.31;;;5.47;100.00
70133;BME280;57495;49.922;7.966;2024-03-06T00:05:19;100006.41;;;5.49;100.00
70133;BME280;57495;49.922;7.966;2024-03-06T00:07:20;100003.38;;;5.67;100.00
70133;BME280;57495;49.922;7.966;2024-03-06T00:09:21;100000.72;;;5.67;100.00
70133;BME280;57495;49.922;7.966;2024-03-06T00:11:22;100007.97;;;5.65;100.00
70133;BME280;57495;49.922;7.966;2024-03-06T00:13:23;100001.41;;;5.57;100.00
70133;BME280;57495;49.922;7.966;2024-03-06T00:15:25;99999.78;;;5.55;100.00
70133;BME280;57495;49.922;7.966;2024-03-06T00:17:27;100002.44;;;5.55;100.00
70133;BME280;57495;49.922;7.966;2024-03-06T00:19:29;100004.00;;;5.46;100.00
70133;BME280;57495;49.922;7.966;2024-03-06T00:21:30;100003.00;;;5.47;100.00
70133;BME280;57495;49.922;7.966;2024-03-06T00:23:32;100012.25;;;5.41;100.00
70133;BME280;57495;49.922;7.966;2024-03-06T00:25:35;100008.66;;;5.42;100.00
70133;BME280;57495;49.922;7.966;2024-03-06T00:27:37;100013.09;;;5.42;100.00
70133;BME280;57495;49.922;7.966;2024-03-06T00:29:38;100015.66;;;5.31;100.00
70133;BME280;57495;49.922;7.966;2024-03-06T00:31:42;100018.13;;;5.34;100.00
70133;BME280;57495;49.922;7.966;2024-03-06T00:33:44;100022.88;;;5.41;100.00
70133;BME280;57495;49.922;7.966;2024-03-06T00:35:45;100015.75;;;5.42;100.00
70133;BME280;57495;49.922;7.966;2024-03-06T00:37:48;100007.63;;;5.19;100.00
70133;BME280;57495;49.922;7.966;2024-03-06T00:39:49;100015.91;;;5.28;100.00
70133;BME280;57495;49.922;7.966;2024-03-06T00:41:50;100014.19;;;5.27;100.00
70133;BME280;57495;49.922;7.966;2024-03-06T00:43:51;100010.59;;;5.28;100.00
70133;BME280;57495;49.922;7.966;2024-03-06T00:45:53;100018.66;;;5.26;100.00
70133;BME280;57495;49.922;7.966;2024-03-06T00:47:54;100011.25;;;5.18;100.00
70133;BME280;57495;49.922;7.966;2024-03-06T00:49:55;100016.66;;;5.17;100.00
70133;BME280;57495;49.922;7.966;2024-03-06T00:51:57;100023.97;;;5.13;100.00
70133;BME280;57495;49.922;7.966;2024-03-06T00:54:00;100030.97;;;5.14;100.00
70133;BME280;57495;49.922;7.966;2024-03-06T00:56:02;100028.00;;;5.19;100.00
70133;BME280;57495;49.922;7.966;2024-03-06T00:58:02;100032.66;;;5.15;100.00
70133;BME280;57495;49.922;7.966;2024-03-06T01:00:05;100036.59;;;4.97;100.00
70133;BME280;57495;49.922;7.966;2024-03-06T01:02:10;100039.06;;;5.00;100.00
70133;BME280;57495;49.922;7.966;2024-03-06T01:04:12;100035.66;;;4.98;100.00
70133;BME280;57495;49.922;7.966;2024-03-06T01:06:13;100035.22;;;5.04;100.00
70133;BME280;57495;49.922;7.966;2024-03-06T01:08:14;100034.38;;;5.03;100.00
70133;BME280;57495;49.922;7.966;2024-03-06T01:10:19;100037.44;;;5.10;100.00
70133;BME280;57495;49.922;7.966;2024-03-06T01:12:20;100044.34;;;5.13;100.00
70133;BME280;57495;49.922;7.966;2024-03-06T01:14:21;100041.69;;;5.13;100.00
70133;BME280;57495;49.922;7.966;2024-03-06T01:16:23;100047.09;;;5.11;100.00
70133;BME280;57495;49.922;7.966;2024-03-06T01:18:24;100050.78;;;5.09;100.00
70133;BME280;57495;49.922;7.966;2024-03-06T01:20:26;100054.50;;;5.06;100.00
70133;BME280;57495;49.922;7.966;2024-03-06T01:22:26;100055.34;;;4.94;100.00
70133;BME280;57495;49.922;7.966;2024-03-06T01:24:28;100054.41;;;4.95;100.00
70133;BME280;57495;49.922;7.966;2024-03-06T01:26:30;100057.81;;;4.97;100.00
70133;BME280;57495;49.922;7.966;2024-03-06T01:28:32;100059.38;;;4.87;100.00
70133;BME280;57495;49.922;7.966;2024-03-06T01:30:33;100058.31;;;4.76;100.00
70133;BME280;57495;49.922;7.966;2024-03-06T01:32:35;100050.91;;;4.81;100.00
70133;BME280;57495;49.922;7.966;2024-03-06T01:34:37;100051.75;;;4.82;100.00
70133;BME280;57495;49.922;7.966;2024-03-06T01:36:38;100045.09;;;4.76;100.00
70133;BME280;57495;49.922;7.966;2024-03-06T01:38:40;100049.41;;;4.77;100.00
70133;BME280;57495;49.922;7.966;2024-03-06T01:40:43;100051.13;;;4.78;100.00
70133;BME280;57495;49.922;7.966;2024-03-06T01:42:47;100047.72;;;4.76;100.00
70133;BME280;57495;49.922;7.966;2024-03-06T01:44:49;100050.47;;;4.75;100.00
70133;BME280;57495;49.922;7.966;2024-03-06T01:46:49;100041.16;;;4.69;100.00
70133;BME280;57495;49.922;7.966;2024-03-06T01:48:51;100046.75;;;4.64;100.00
70133;BME280;57495;49.922;7.966;2024-03-06T01:50:52;100046.53;;;4.68;100.00
70133;BME280;57495;49.922;7.966;2024-03-06T01:52:54;100053.78;;;4.78;100.00
70133;BME280;57495;49.922;7.966;2024-03-06T01:54:56;100055.97;;;4.72;100.00
70133;BME280;57495;49.922;7.966;2024-03-06T01:56:58;100055.03;;;4.86;100.00
70133;BME280;57495;49.922;7.966;2024-03-06T01:59:04;100056.22;;;4.94;100.00
70133;BME280;57495;49.922;7.966;2024-03-06T02:01:05;100061.53;;;5.07;100.00
70133;BME280;57495;49.922;7.966;2024-03-06T02:03:07;100061.28;;;5.10;100.00
70133;BME280;57495;49.922;7.966;2024-03-06T02:05:08;100058.88;;;5.07;100.00
70133;BME280;57495;49.922;7.966;2024-03-06T02:07:10;100058.97;;;4.93;100.00
70133;BME280;57495;49.922;7.966;2024-03-06T02:09:12;100061.09;;;4.88;100.00
70133;BME280;57495;49.922;7.966;2024-03-06T02:11:13;100059.59;;;4.83;100.00
70133;BME280;57495;49.922;7.966;2024-03-06T02:13:15;100060.44;;;4.97;100.00
70133;BME280;57495;49.922;7.966;2024-03-06T02:15:19;100068.72;;;5.05;100.00
70133;BME280;57495;49.922;7.966;2024-03-06T02:17:20;100070.63;;;5.03;100.00
70133;BME280;57495;49.922;7.966;2024-03-06T02:19:22;100068.72;;;5.05;100.00
70133;BME280;57495;49.922;7.966;2024-03-06T02:21:25;100062.56;;;4.92;100.00
70133;BME280;57495;49.922;7.966;2024-03-06T02:23:26;100062.78;;;4.89;100.00
70133;BME280;57495;49.922;7.966;2024-03-06T02:25:28;100066.81;;;4.81;100.00
70133;BME280;57495;49.922;7.966;2024-03-06T02:27:29;100066.91;;;4.80;100.00
70133;BME280;57495;49.922;7.966;2024-03-06T02:29:31;100062.53;;;4.66;100.00
70133;BME280;57495;49.922;7.966;2024-03-06T02:31:33;100064.06;;;4.70;100.00
70133;BME280;57495;49.922;7.966;2024-03-06T02:33:34;100064.66;;;4.87;100.00
70133;BME280;57495;49.922;7.966;2024-03-06T02:35:36;100062.38;;;4.95;100.00
70133;BME280;57495;49.922;7.966;2024-03-06T02:37:40;100061.09;;;5.00;100.00
70133;BME280;57495;49.922;7.966;2024-03-06T02:39:41;100062.16;;;4.98;100.00
70133;BME280;57495;49.922;7.966;2024-03-06T02:41:42;100058.97;;;4.93;100.00
70133;BME280;57495;49.922;7.966;2024-03-06T02:43:44;100054.94;;;5.00;100.00
70133;BME280;57495;49.922;7.966;2024-03-06T02:45:45;100056.63;;;5.01;100.00
70133;BME280;57495;49.922;7.966;2024-03-06T02:47:47;100058.34;;;5.02;100.00
70133;BME280;57495;49.922;7.966;2024-03-06T02:49:48;100056.31;;;5.06;100.00
70133;BME280;57495;49.922;7.966;2024-03-06T02:51:50;100056.22;;;5.07;100.00
70133;BME280;57495;49.922;7.966;2024-03-06T02:53:52;100054.50;;;5.06;100.00
70133;BME280;57495;49.922;7.966;2024-03-06T02:55:54;100051.97;;;5.04;100.00
70133;BME280;57495;49.922;7.966;2024-03-06T02:57:55;100042.97;;;5.07;100.00
70133;BME280;57495;49.922;7.966;2024-03-06T02:59:58;100047.31;;;5.08;100.00
70133;BME280;57495;49.922;7.966;2024-03-06T03:01:59;100047.75;;;5.02;100.00
70133;BME280;57495;49.922;7.966;2024-03-06T03:04:01;100051.31;;;5.01;100.00
70133;BME280;57495;49.922;7.966;2024-03-06T03:06:02;100060.25;;;5.00;100.00
70133;BME280;57495;49.922;7.966;2024-03-06T03:08:05;100053.31;;;4.59;100.00
70133;BME280;57495;49.922;7.966;2024-03-06T03:10:10;100052.50;;;4.31;100.00
70133;BME280;57495;49.922;7.966;2024-03-06T03:12:12;100056.44;;;3.98;100.00
70133;BME280;57495;49.922;7.966;2024-03-06T03:14:14;100054.31;;;4.03;100.00
70133;BME280;57495;49.922;7.966;2024-03-06T03:16:16;100063.72;;;4.22;100.00
70133;BME280;57495;49.922;7.966;2024-03-06T03:18:18;100070.56;;;4.12;100.00
70133;BME280;57495;49.922;7.966;2024-03-06T03:20:19;100069.69;;;3.98;100.00
70133;BME280;57495;49.922;7.966;2024-03-06T03:22:21;100076.19;;;4.20;100.00
70133;BME280;57495;49.922;7.966;2024-03-06T03:24:23;100078.94;;;3.91;100.00
70133;BME280;57495;49.922;7.966;2024-03-06T03:26:27;100075.25;;;3.94;100.00
70133;BME280;57495;49.922;7.966;2024-03-06T03:28:28;100085.34;;;4.01;100.00
70133;BME280;57495;49.922;7.966;2024-03-06T03:30:29;100081.56;;;4.05;100.00
70133;BME280;57495;49.922;7.966;2024-03-06T03:32:30;100083.06;;;4.10;100.00
70133;BME280;57495;49.922;7.966;2024-03-06T03:34:30;100073.41;;;4.09;100.00
70133;BME280;57495;49.922;7.966;2024-03-06T03:36:32;100080.47;;;4.22;100.00
70133;BME280;57495;49.922;7.966;2024-03-06T03:38:35;100080.38;;;4.24;100.00
70133;BME280;57495;49.922;7.966;2024-03-06T03:40:38;100086.59;;;4.23;100.00
70133;BME280;57495;49.922;7.966;2024-03-06T03:42:41;100086.19;;;4.29;100.00
70133;BME280;57495;49.922;7.966;2024-03-06T03:44:44;100084.09;;;4.34;100.00
70133;BME280;57495;49.922;7.966;2024-03-06T03:46:45;100081.09;;;4.26;100.00
70133;BME280;57495;49.922;7.966;2024-03-06T03:48:47;100084.28;;;4.31;100.00
70133;BME280;57495;49.922;7.966;2024-03-06T03:50:48;100081.72;;;4.17;100.00
70133;BME280;57495;49.922;7.966;2024-03-06T03:52:50;100078.09;;;4.18;100.00
70133;BME280;57495;49.922;7.966;2024-03-06T03:54:51;100081.84;;;4.28;100.00
70133;BME280;57495;49.922;7.966;2024-03-06T03:56:52;100082.91;;;4.38;100.00
70133;BME280;57495;49.922;7.966;2024-03-06T03:58:55;100079.88;;;4.44;100.00
70133;BME280;57495;49.922;7.966;2024-03-06T04:00:57;100076.50;;;4.42;100.00
70133;BME280;57495;49.922;7.966;2024-03-06T04:02:59;100087.84;;;4.44;100.00
70133;BME280;57495;49.922;7.966;2024-03-06T04:05:00;100087.41;;;4.51;100.00
70133;BME280;57495;49.922;7.966;2024-03-06T04:07:02;100084.31;;;4.44;100.00
70133;BME280;57495;49.922;7.966;2024-03-06T04:09:03;100080.09;;;4.41;100.00
70133;BME280;57495;49.922;7.966;2024-03-06T04:11:05;100089.59;;;4.44;100.00
70133;BME280;57495;49.922;7.966;2024-03-06T04:13:06;100088.56;;;4.47;100.00
70133;BME280;57495;49.922;7.966;2024-03-06T04:15:09;100085.38;;;4.41;100.00
70133;BME280;57495;49.922;7.966;2024-03-06T04:17:11;100094.56;;;4.36;100.00
70133;BME280;57495;49.922;7.966;2024-03-06T04:19:12;100097.19;;;4.23;100.00
70133;BME280;57495;49.922;7.966;2024-03-06T04:21:13;100093.59;;;4.24;100.00
70133;BME280;57495;49.922;7.966;2024-03-06T04:23:15;100101.53;;;4.24;100.00
70133;BME280;57495;49.922;7.966;2024-03-06T04:25:16;100100.00;;;4.20;100.00
70133;BME280;57495;49.922;7.966;2024-03-06T04:27:17;100111.44;;;3.93;100.00
70133;BME280;57495;49.922;7.966;2024-03-06T04:29:19;100109.13;;;4.01;100.00
70133;BME280;57495;49.922;7.966;2024-03-06T04:31:22;100115.09;;;4.05;100.00
70133;BME280;57495;49.922;7.966;2024-03-06T04:33:23;100115.19;;;4.03;100.00
70133;BME280;57495;49.922;7.966;2024-03-06T04:35:24;100119.13;;;4.11;100.00
70133;BME280;57495;49.922;7.966;2024-03-06T04:37:26;100113.47;;;4.17;100.00
70133;BME280;57495;49.922;7.966;2024-03-06T04:39:29;100111.47;;;4.20;100.00
70133;BME280;57495;49.922;7.966;2024-03-06T04:41:30;100121.94;;;4.22;100.00
70133;BME280;57495;49.922;7.966;2024-03-06T04:43:32;100123.44;;;4.26;100.00
70133;BME280;57495;49.922;7.966;2024-03-06T04:45:33;100125.94;;;4.15;100.00
70133;BME280;57495;49.922;7.966;2024-03-06T04:47:36;100128.03;;;4.10;100.00
70133;BME280;57495;49.922;7.966;2024-03-06T04:49:38;100132.03;;;4.02;100.00
70133;BME280;57495;49.922;7.966;2024-03-06T04:51:38;100127.50;;;3.90;100.00
70133;BME280;57495;49.922;7.966;2024-03-06T04:53:40;100135.00;;;3.69;100.00
70133;BME280;57495;49.922;7.966;2024-03-06T04:55:42;100132.06;;;3.74;100.00
70133;BME280;57495;49.922;7.966;2024-03-06T04:57:44;100136.81;;;3.54;100.00
70133;BME280;57495;49.922;7.966;2024-03-06T04:59:44;100137.38;;;3.45;100.00
70133;BME280;57495;49.922;7.966;2024-03-06T05:01:45;100135.28;;;3.64;100.00
70133;BME280;57495;49.922;7.966;2024-03-06T05:03:48;100133.38;;;3.81;100.00
70133;BME280;57495;49.922;7.966;2024-03-06T05:05:50;100145.09;;;3.91;100.00
70133;BME280;57495;49.922;7.966;2024-03-06T05:07:52;100146.09;;;3.88;100.00
70133;BME280;57495;49.922;7.966;2024-03-06T05:09:53;100149.22;;;3.95;100.00
70133;BME280;57495;49.922;7.966;2024-03-06T05:11:55;100156.97;;;3.98;100.00
70133;BME280;57495;49.922;7.966;2024-03-06T05:13:57;100159.53;;;4.00;100.00
70133;BME280;57495;49.922;7.966;2024-03-06T05:15:59;100153.78;;;3.93;100.00
70133;BME280;57495;49.922;7.966;2024-03-06T05:18:00;100159.06;;;3.93;100.00
70133;BME280;57495;49.922;7.966;2024-03-06T05:20:04;100157.91;;;3.97;100.00
70133;BME280;57495;49.922;7.966;2024-03-06T05:22:06;100159.72;;;3.97;100.00
70133;BME280;57495;49.922;7.966;2024-03-06T05:24:07;100163.94;;;3.99;100.00
70133;BME280;57495;49.922;7.966;2024-03-06T05:26:09;100168.91;;;3.91;100.00
70133;BME280;57495;49.922;7.966;2024-03-06T05:28:10;100167.28;;;3.88;100.00
70133;BME280;57495;49.922;7.966;2024-03-06T05:30:12;100175.22;;;3.88;100.00
70133;BME280;57495;49.922;7.966;2024-03-06T05:32:12;100179.09;;;3.83;100.00
70133;BME280;57495;49.922;7.966;2024-03-06T05:34:14;100182.22;;;3.75;100.00
70133;BME280;57495;49.922;7.966;2024-03-06T05:36:17;100184.78;;;3.77;100.00
70133;BME280;57495;49.922;7.966;2024-03-06T05:38:18;100181.38;;;3.75;100.00
70133;BME280;57495;49.922;7.966;2024-03-06T05:40:22;100193.38;;;3.80;100.00
70133;BME280;57495;49.922;7.966;2024-03-06T05:42:22;100187.81;;;3.85;100.00
70133;BME280;57495;49.922;7.966;2024-03-06T05:44:24;100187.50;;;3.75;100.00
70133;BME280;57495;49.922;7.966;2024-03-06T05:46:25;100193.00;;;3.72;100.00
70133;BME280;57495;49.922;7.966;2024-03-06T05:48:26;100190.81;;;3.79;100.00
70133;BME280;57495;49.922;7.966;2024-03-06T05:50:28;100187.50;;;3.75;100.00
70133;BME280;57495;49.922;7.966;2024-03-06T05:52:31;100193.84;;;3.73;100.00
70133;BME280;57495;49.922;7.966;2024-03-06T05:54:32;100196.09;;;3.79;100.00
70133;BME280;57495;49.922;7.966;2024-03-06T05:56:35;100195.84;;;3.83;100.00
70133;BME280;57495;49.922;7.966;2024-03-06T05:58:36;100203.84;;;3.96;100.00
70133;BME280;57495;49.922;7.966;2024-03-06T06:00:38;100206.69;;;3.93;100.00
70133;BME280;57495;49.922;7.966;2024-03-06T06:02:39;100202.72;;;3.86;100.00
70133;BME280;57495;49.922;7.966;2024-03-06T06:04:41;100211.03;;;3.80;100.00
70133;BME280;57495;49.922;7.966;2024-03-06T06:06:42;100209.81;;;3.85;100.00
70133;BME280;57495;49.922;7.966;2024-03-06T06:08:45;100220.66;;;3.81;100.00
70133;BME280;57495;49.922;7.966;2024-03-06T06:10:46;100222.53;;;3.64;100.00
70133;BME280;57495;49.922;7.966;2024-03-06T06:12:48;100227.34;;;3.43;100.00
70133;BME280;57495;49.922;7.966;2024-03-06T06:14:49;100234.41;;;3.28;100.00
70133;BME280;57495;49.922;7.966;2024-03-06T06:16:51;100229.50;;;3.37;100.00
70133;BME280;57495;49.922;7.966;2024-03-06T06:18:52;100234.78;;;3.37;100.00
70133;BME280;57495;49.922;7.966;2024-03-06T06:20:54;100242.63;;;3.38;100.00
70133;BME280;57495;49.922;7.966;2024-03-06T06:22:55;100234.22;;;3.46;100.00
70133;BME280;57495;49.922;7.966;2024-03-06T06:24:59;100239.06;;;3.54;100.00
70133;BME280;57495;49.922;7.966;2024-03-06T06:27:00;100241.44;;;3.58;100.00
70133;BME280;57495;49.922;7.966;2024-03-06T06:29:02;100241.50;;;3.57;100.00
70133;BME280;57495;49.922;7.966;2024-03-06T06:31:04;100237.66;;;3.48;100.00
70133;BME280;57495;49.922;7.966;2024-03-06T06:33:05;100242.44;;;3.41;100.00
70133;BME280;57495;49.922;7.966;2024-03-06T06:35:08;100249.16;;;3.47;100.00
70133;BME280;57495;49.922;7.966;2024-03-06T06:37:09;100251.50;;;3.52;100.00
70133;BME280;57495;49.922;7.966;2024-03-06T06:39:10;100256.91;;;3.50;100.00
70133;BME280;57495;49.922;7.966;2024-03-06T06:41:13;100246.59;;;3.45;100.00
70133;BME280;57495;49.922;7.966;2024-03-06T06:43:15;100258.81;;;3.48;100.00
70133;BME280;57495;49.922;7.966;2024-03-06T06:45:17;100255.19;;;3.49;100.00
70133;BME280;57495;49.922;7.966;2024-03-06T06:47:17;100262.19;;;3.50;100.00
70133;BME280;57495;49.922;7.966;2024-03-06T06:49:19;100259.66;;;3.48;100.00
70133;BME280;57495;49.922;7.966;2024-03-06T06:51:19;100269.00;;;3.54;100.00
70133;BME280;57495;49.922;7.966;2024-03-06T06:53:21;100263.59;;;3.41;100.00
70133;BME280;57495;49.922;7.966;2024-03-06T06:55:22;100264.59;;;3.24;100.00
70133;BME280;57495;49.922;7.966;2024-03-06T06:57:26;100262.88;;;3.23;100.00
70133;BME280;57495;49.922;7.966;2024-03-06T06:59:27;100266.88;;;3.31;100.00
70133;BME280;57495;49.922;7.966;2024-03-06T07:01:28;100267.28;;;3.39;100.00
70133;BME280;57495;49.922;7.966;2024-03-06T07:03:30;100267.28;;;3.53;100.00
70133;BME280;57495;49.922;7.966;2024-03-06T07:05:31;100277.84;;;3.53;100.00
70133;BME280;57495;49.922;7.966;2024-03-06T07:07:32;100282.44;;;3.65;100.00
70133;BME280;57495;49.922;7.966;2024-03-06T07:09:33;100284.88;;;3.83;100.00
70133;BME280;57495;49.922;7.966;2024-03-06T07:11:35;100290.19;;;3.83;100.00
70133;BME280;57495;49.922;7.966;2024-03-06T07:13:38;100284.31;;;3.92;100.00
70133;BME280;57495;49.922;7.966;2024-03-06T07:15:38;100278.69;;;3.98;100.00
70133;BME280;57495;49.922;7.966;2024-03-06T07:17:40;100291.06;;;4.12;100.00
70133;BME280;57495;49.922;7.966;2024-03-06T07:19:41;100290.03;;;4.15;100.00
70133;BME280;57495;49.922;7.966;2024-03-06T07:21:41;100295.28;;;3.86;100.00
70133;BME280;57495;49.922;7.966;2024-03-06T07:23:43;100298.13;;;3.68;100.00
70133;BME280;57495;49.922;7.966;2024-03-06T07:25:44;100296.34;;;3.98;100.00
70133;BME280;57495;49.922;7.966;2024-03-06T07:27:46;100297.50;;;4.22;100.00
70133;BME280;57495;49.922;7.966;2024-03-06T07:29:48;100301.63;;;4.55;100.00
70133;BME280;57495;49.922;7.966;2024-03-06T07:31:50;100299.00;;;4.68;100.00
70133;BME280;57495;49.922;7.966;2024-03-06T07:33:50;100303.53;;;4.80;100.00
70133;BME280;57495;49.922;7.966;2024-03-06T07:35:52;100299.59;;;5.00;100.00
70133;BME280;57495;49.922;7.966;2024-03-06T07:37:53;100295.84;;;5.17;100.00
70133;BME280;57495;49.922;7.966;2024-03-06T07:39:55;100305.44;;;5.06;100.00
70133;BME280;57495;49.922;7.966;2024-03-06T07:41:57;100304.94;;;5.13;100.00
70133;BME280;57495;49.922;7.966;2024-03-06T07:43:57;100313.84;;;5.12;100.00
70133;BME280;57495;49.922;7.966;2024-03-06T07:46:00;100315.19;;;5.05;100.00
70133;BME280;57495;49.922;7.966;2024-03-06T07:48:02;100318.53;;;5.21;100.00
70133;BME280;57495;49.922;7.966;2024-03-06T07:50:04;100321.03;;;5.10;100.00
70133;BME280;57495;49.922;7.966;2024-03-06T07:52:06;100320.66;;;5.16;100.00
70133;BME280;57495;49.922;7.966;2024-03-06T07:54:08;100327.16;;;5.38;100.00
70133;BME280;57495;49.922;7.966;2024-03-06T07:56:10;100327.09;;;5.12;100.00
70133;BME280;57495;49.922;7.966;2024-03-06T07:58:12;100324.53;;;5.38;100.00
70133;BME280;57495;49.922;7.966;2024-03-06T08:00:14;100324.06;;;5.18;100.00
70133;BME280;57495;49.922;7.966;2024-03-06T08:02:17;100325.00;;;5.57;100.00
70133;BME280;57495;49.922;7.966;2024-03-06T08:04:18;100327.16;;;5.91;100.00
70133;BME280;57495;49.922;7.966;2024-03-06T08:06:19;100324.31;;;6.07;100.00
70133;BME280;57495;49.922;7.966;2024-03-06T08:08:20;100330.06;;;6.13;100.00
70133;BME280;57495;49.922;7.966;2024-03-06T08:10:22;100331.25;;;6.22;100.00
70133;BME280;57495;49.922;7.966;2024-03-06T08:12:23;100332.38;;;6.44;100.00
70133;BME280;57495;49.922;7.966;2024-03-06T08:14:24;100330.78;;;6.54;100.00
70133;BME280;57495;49.922;7.966;2024-03-06T08:16:25;100333.44;;;6.41;100.00
70133;BME280;57495;49.922;7.966;2024-03-06T08:18:28;100335.88;;;6.57;100.00
70133;BME280;57495;49.922;7.966;2024-03-06T08:20:29;100332.34;;;6.56;100.00
70133;BME280;57495;49.922;7.966;2024-03-06T08:22:31;100328.81;;;6.69;100.00
70133;BME280;57495;49.922;7.966;2024-03-06T08:24:31;100325.78;;;6.86;100.00
70133;BME280;57495;49.922;7.966;2024-03-06T08:26:33;100335.44;;;7.24;100.00
70133;BME280;57495;49.922;7.966;2024-03-06T08:28:34;100337.13;;;7.25;100.00
70133;BME280;57495;49.922;7.966;2024-03-06T08:30:34;100336.38;;;7.47;100.00
70133;BME280;57495;49.922;7.966;2024-03-06T08:32:37;100336.81;;;7.65;100.00
70133;BME280;57495;49.922;7.966;2024-03-06T08:34:39;100337.34;;;7.93;100.00
70133;BME280;57495;49.922;7.966;2024-03-06T08:36:41;100328.91;;;8.10;100.00
70133;BME280;57495;49.922;7.966;2024-03-06T08:38:42;100331.94;;;8.17;100.00
70133;BME280;57495;49.922;7.966;2024-03-06T08:40:43;100328.94;;;8.33;100.00
70133;BME280;57495;49.922;7.966;2024-03-06T08:42:46;100334.78;;;8.49;100.00
70133;BME280;57495;49.922;7.966;2024-03-06T08:44:48;100331.25;;;8.60;100.00
70133;BME280;57495;49.922;7.966;2024-03-06T08:46:50;100333.16;;;8.81;100.00
70133;BME280;57495;49.922;7.966;2024-03-06T08:48:52;100338.97;;;8.86;100.00
70133;BME280;57495;49.922;7.966;2024-03-06T08:50:55;100341.34;;;9.12;100.00
70133;BME280;57495;49.922;7.966;2024-03-06T08:52:56;100343.75;;;9.26;100.00
70133;BME280;57495;49.922;7.966;2024-03-06T08:54:58;100345.09;;;9.53;100.00
70133;BME280;57495;49.922;7.966;2024-03-06T08:56:59;100347.88;;;9.83;100.00
70133;BME280;57495;49.922;7.966;2024-03-06T08:59:00;100347.06;;;9.93;100.00
70133;BME280;57495;49.922;7.966;2024-03-06T09:01:03;100342.69;;;9.92;100.00
70133;BME280;57495;49.922;7.966;2024-03-06T09:03:05;100356.06;;;9.38;100.00
70133;BME280;57495;49.922;7.966;2024-03-06T09:05:07;100356.09;;;9.27;100.00
70133;BME280;57495;49.922;7.966;2024-03-06T09:07:12;100357.09;;;9.26;100.00
70133;BME280;57495;49.922;7.966;2024-03-06T09:09:14;100356.53;;;9.11;100.00
70133;BME280;57495;49.922;7.966;2024-03-06T09:11:16;100357.19;;;8.92;100.00
70133;BME280;57495;49.922;7.966;2024-03-06T09:13:17;100359.69;;;8.94;100.00
70133;BME280;57495;49.922;7.966;2024-03-06T09:15:18;100353.72;;;9.13;100.00
70133;BME280;57495;49.922;7.966;2024-03-06T09:17:20;100363.81;;;9.09;100.00
70133;BME280;57495;49.922;7.966;2024-03-06T09:19:20;100361.50;;;9.04;100.00
70133;BME280;57495;49.922;7.966;2024-03-06T09:21:23;100356.75;;;9.08;100.00
70133;BME280;57495;49.922;7.966;2024-03-06T09:23:25;100361.00;;;8.99;100.00
70133;BME280;57495;49.922;7.966;2024-03-06T09:25:30;100367.28;;;9.21;100.00
70133;BME280;57495;49.922;7.966;2024-03-06T09:27:31;100363.84;;;9.30;100.00
70133;BME280;57495;49.922;7.966;2024-03-06T09:29:33;100369.88;;;9.43;100.00
70133;BME280;57495;49.922;7.966;2024-03-06T09:31:34;100370.34;;;9.81;100.00
70133;BME280;57495;49.922;7.966;2024-03-06T09:33:35;100368.19;;;9.96;100.00
70133;BME280;57495;49.922;7.966;2024-03-06T09:35:36;100369.88;;;9.97;100.00
70133;BME280;57495;49.922;7.966;2024-03-06T09:37:37;100364.53;;;10.39;100.00
70133;BME280;57495;49.922;7.966;2024-03-06T09:39:40;100369.31;;;10.66;100.00
70133;BME280;57495;49.922;7.966;2024-03-06T09:41:42;100368.41;;;10.87;100.00
70133;BME280;57495;49.922;7.966;2024-03-06T09:43:43;100361.41;;;10.64;100.00
70133;BME280;57495;49.922;7.966;2024-03-06T09:45:48;100368.41;;;10.87;100.00
70133;BME280;57495;49.922;7.966;2024-03-06T09:47:50;100371.13;;;11.16;98.82
70133;BME280;57495;49.922;7.966;2024-03-06T09:49:52;100373.13;;;11.24;98.35
70133;BME280;57495;49.922;7.966;2024-03-06T09:51:58;100366.84;;;11.73;99.64
70133;BME280;57495;49.922;7.966;2024-03-06T09:54:00;100378.69;;;12.00;97.85
70133;BME280;57495;49.922;7.966;2024-03-06T09:56:02;100374.13;;;12.10;96.36
70133;BME280;57495;49.922;7.966;2024-03-06T09:58:05;100372.91;;;12.52;96.28
70133;BME280;57495;49.922;7.966;2024-03-06T10:00:09;100373.06;;;12.78;94.40
70133;BME280;57495;49.922;7.966;2024-03-06T10:02:19;100371.69;;;12.74;89.42
70133;BME280;57495;49.922;7.966;2024-03-06T10:04:28;100370.06;;;12.91;86.70
70133;BME280;57495;49.922;7.966;2024-03-06T10:06:30;100369.56;;;13.23;86.03
70133;BME280;57495;49.922;7.966;2024-03-06T10:08:32;100362.41;;;13.60;85.75
70133;BME280;57495;49.922;7.966;2024-03-06T10:10:33;100363.69;;;13.91;82.43
70133;BME280;57495;49.922;7.966;2024-03-06T10:12:36;100370.75;;;14.10;78.51
70133;BME280;57495;49.922;7.966;2024-03-06T10:14:36;100370.06;;;14.08;78.16
70133;BME280;57495;49.922;7.966;2024-03-06T10:16:51;100365.13;;;14.30;77.31
70133;BME280;57495;49.922;7.966;2024-03-06T10:18:53;100365.66;;;14.34;74.88
70133;BME280;57495;49.922;7.966;2024-03-06T10:20:54;100360.59;;;14.57;74.24
70133;BME280;57495;49.922;7.966;2024-03-06T10:22:56;100357.44;;;14.35;75.27
70133;BME280;57495;49.922;7.966;2024-03-06T10:24:57;100369.41;;;13.70;74.23
70133;BME280;57495;49.922;7.966;2024-03-06T10:26:58;100378.75;;;13.30;73.85
70133;BME280;57495;49.922;7.966;2024-03-06T10:29:02;100370.00;;;13.01;75.51
70133;BME280;57495;49.922;7.966;2024-03-06T10:31:04;100368.19;;;13.19;77.36
70133;BME280;57495;49.922;7.966;2024-03-06T10:33:08;100368.09;;;13.11;79.09
70133;BME280;57495;49.922;7.966;2024-03-06T10:35:18;100364.41;;;13.12;77.73
70133;BME280;57495;49.922;7.966;2024-03-06T10:37:20;100367.63;;;13.61;77.22